EGMD Airport Information

Runway Information
Runway 03 Length 4938 ft width 121 ft Elevation 10 ft Threshold N/A Heading 33
Runway 21 Length 4938 ft Width 121 ft Elevation 12 ft Threshold 115 ft Heading 213
Runway 14 Length 2264 ft width 115 ft Elevation 10 ft Threshold N/A Heading 138
Runway 32 Length 2264 ft Width 115 ft Elevation 10 ft Threshold N/A Heading 318
Airport Frequencies
Type Lydd APP Name Lydd Appro Frequency 120.7 MHZ
Type TWR Name TWR Frequency 128.525 MHZ
Type atis Name Frequency 129.225 MHZ
Airport Navaids
Type VOR-DME Name Lydd Frequency 114050 KHZ
Type NDB Name Lydd Frequency 397 KHZ
Airport Weather Information & NOTAM
ADDS - METARS form results

(1957 UTC 03 December 2022)
Data provider http://aviationweather.gov/metar/data/
 
METAR text: EGMD 031950Z AUTO 08017KT 9999 BKN017/// BKN022/// OVC028/// 06/03 Q1017
Conditions at: EGMD (LYDD AIRPORT , GB) observed 1950 UTC 03 December 2022
Temperature: 6.0°C (43°F)
Dewpoint: 3.0°C (37°F) [RH = 81%]
Pressure (altimeter): 30.03 inches Hg (1017.0 mb)
Winds: from the E (80 degrees) at 20 MPH (17 knots; 8.7 m/s)
Visibility: 6 or more miles (10+ km)
Ceiling: 1700 feet AGL
Clouds: broken clouds at 1700 feet AGL
broken clouds at 2200 feet AGL
overcast cloud deck at 2800 feet AGL
Weather: no significant weather observed at this time

METAR text: EGMD 031920Z AUTO 08018KT 9999 SCT015/// BKN019/// OVC024/// 06/03 Q1017
Conditions at: EGMD (LYDD AIRPORT , GB) observed 1920 UTC 03 December 2022
Temperature: 6.0°C (43°F)
Dewpoint: 3.0°C (37°F) [RH = 81%]
Pressure (altimeter): 30.03 inches Hg (1017.0 mb)
Winds: from the E (80 degrees) at 21 MPH (18 knots; 9.3 m/s)
Visibility: 6 or more miles (10+ km)
Ceiling: 1900 feet AGL
Clouds: scattered clouds at 1500 feet AGL
broken clouds at 1900 feet AGL
overcast cloud deck at 2400 feet AGL
Weather: no significant weather observed at this time

Forecast for: EGMD (LYDD AIRPORT , GB)
Text: TAF EGMD 031705Z 0318/0403 07015KT 9999 SCT020
Forecast period: 1800 UTC 03 December 2022 to 0300 UTC 04 December 2022
Forecast type: FROM: standard forecast or significant change
Winds: from the ENE (70 degrees) at 17 MPH (15 knots; 7.7 m/s)
Visibility: 6 or more miles (10+ km)
Ceiling: at least 12,000 feet AGL
Clouds: scattered clouds at 2000 feet AGL
Weather: no significant weather forecast for this period
Text: PROB40
Forecast period: 1800 UTC 03 December 2022 to 0300 UTC 04 December 2022
Forecast type: TEMPORARY: The following changes expected for less than half the time period
Visibility: missing
Ceiling: 900 feet AGL
Clouds: broken clouds at 900 feet AGL
Weather: no significant weather forecast for this period